createdAt,value
2018-04-13T00:02:03.901Z,69.55
2018-04-13T00:04:31.537Z,69.38
2018-04-13T00:06:59.212Z,69.79
2018-04-13T00:09:26.889Z,69.85
2018-04-13T00:11:54.515Z,70.08
2018-04-13T00:14:22.913Z,70.27
2018-04-13T00:16:50.592Z,70.72
2018-04-13T00:19:18.199Z,71.22
2018-04-13T00:21:45.880Z,71.85
2018-04-13T00:24:13.494Z,71.81
2018-04-13T00:26:41.984Z,72.37
2018-04-13T00:29:09.647Z,72.49
2018-04-13T00:31:37.320Z,71.63
2018-04-13T00:34:05.000Z,72.11
2018-04-13T00:36:32.649Z,72.56
2018-04-13T00:39:00.256Z,72.18
2018-04-13T00:41:27.940Z,72.19
2018-04-13T00:43:55.689Z,70.97
2018-04-13T00:46:23.360Z,71.12
2018-04-13T00:48:50.972Z,72.14
2018-04-13T00:51:18.928Z,72.07
2018-04-13T00:53:46.543Z,71.50
2018-04-13T00:56:14.247Z,71.44
2018-04-13T00:58:42.652Z,71.71
2018-04-13T01:01:10.279Z,72.32
2018-04-13T01:03:37.954Z,72.11
2018-04-13T01:06:05.701Z,71.56
2018-04-13T01:08:33.378Z,72.02
2018-04-13T01:11:01.008Z,72.16
2018-04-13T01:13:28.727Z,72.87
2018-04-13T01:15:56.358Z,72.71
2018-04-13T01:18:24.035Z,72.55
2018-04-13T01:20:51.716Z,72.74
2018-04-13T01:23:19.327Z,73.22
2018-04-13T01:25:46.944Z,72.57
2018-04-13T01:28:14.699Z,72.63
2018-04-13T01:30:42.304Z,73.10
2018-04-13T01:33:09.916Z,73.12
2018-04-13T01:35:37.937Z,72.71
2018-04-13T01:38:05.573Z,72.96
2018-04-13T01:40:33.267Z,73.28
2018-04-13T01:43:00.951Z,73.20
2018-04-13T01:45:28.653Z,72.77
2018-04-13T01:47:56.353Z,73.06
2018-04-13T01:50:24.012Z,72.48
2018-04-13T01:52:51.670Z,72.16
2018-04-13T01:55:19.352Z,72.91
2018-04-13T01:57:47.020Z,72.96
2018-04-13T02:00:14.857Z,73.64
2018-04-13T02:02:42.480Z,73.96
2018-04-13T02:05:10.520Z,74.46
2018-04-13T02:07:38.168Z,74.40
2018-04-13T02:10:05.829Z,74.37
2018-04-13T02:12:33.561Z,74.32
2018-04-13T02:15:01.237Z,74.47
2018-04-13T02:17:28.871Z,74.33
2018-04-13T02:19:56.839Z,74.71
2018-04-13T02:22:24.435Z,75.15
2018-04-13T02:24:52.019Z,75.09
2018-04-13T02:27:19.749Z,74.83
2018-04-13T02:29:47.407Z,74.75
2018-04-13T02:32:15.053Z,74.32
2018-04-13T02:34:42.811Z,74.03
2018-04-13T02:37:10.492Z,72.44
2018-04-13T02:39:38.096Z,72.20
2018-04-13T02:42:05.758Z,72.88
2018-04-13T02:44:33.409Z,73.82
2018-04-13T02:47:01.005Z,74.70
2018-04-13T02:49:28.737Z,75.42
2018-04-13T02:51:56.419Z,75.84
2018-04-13T02:54:24.017Z,76.66
2018-04-13T02:56:51.887Z,77.69
2018-04-13T02:59:19.492Z,78.38
2018-04-13T03:01:48.298Z,78.62
2018-04-13T03:04:15.945Z,79.07
2018-04-13T03:06:43.530Z,79.49
2018-04-13T03:09:11.219Z,79.24
2018-04-13T03:11:38.878Z,79.21
2018-04-13T03:14:06.476Z,79.11
2018-04-13T03:16:34.101Z,79.23
2018-04-13T03:19:01.740Z,79.02
2018-04-13T03:21:29.343Z,78.59
2018-04-13T03:23:57.052Z,78.15
2018-04-13T03:26:24.852Z,78.10
2018-04-13T03:28:52.440Z,77.94
2018-04-13T03:31:20.045Z,77.44
2018-04-13T03:33:47.671Z,77.45
2018-04-13T03:36:15.261Z,77.36
2018-04-13T03:38:42.904Z,76.79
2018-04-13T03:41:10.609Z,76.78
2018-04-13T03:43:38.236Z,76.38
2018-04-13T03:46:05.852Z,75.77
2018-04-13T03:48:33.485Z,76.15
2018-04-13T03:51:01.062Z,76.37
2018-04-13T03:53:28.704Z,76.80
2018-04-13T03:55:56.342Z,76.59
2018-04-13T03:58:24.000Z,76.95
2018-04-13T04:00:51.648Z,76.92
2018-04-13T04:03:20.512Z,76.60
2018-04-13T04:05:48.120Z,76.41
2018-04-13T04:08:15.728Z,76.01
2018-04-13T04:10:44.252Z,76.33
2018-04-13T04:13:11.940Z,75.81
2018-04-13T04:15:39.524Z,75.67
2018-04-13T04:18:07.176Z,75.87
2018-04-13T04:20:46.515Z,75.73
2018-04-13T04:23:25.803Z,76.23
2018-04-13T04:26:05.186Z,76.28
2018-04-13T04:28:32.819Z,75.30
2018-04-13T04:31:00.465Z,75.33
2018-04-13T04:33:28.043Z,75.45
2018-04-13T04:35:55.896Z,75.51
2018-04-13T04:38:23.531Z,75.19
2018-04-13T04:40:51.146Z,74.68
2018-04-13T04:43:18.796Z,74.93
2018-04-13T04:45:46.472Z,75.09
2018-04-13T04:48:14.055Z,74.26
2018-04-13T04:50:41.700Z,74.49
2018-04-13T04:53:09.285Z,73.37
2018-04-13T04:55:36.863Z,73.35
2018-04-13T04:58:04.573Z,72.62
2018-04-13T05:00:32.196Z,73.22
2018-04-13T05:02:59.780Z,72.33
2018-04-13T05:05:27.561Z,73.18
2018-04-13T05:07:55.153Z,73.44
2018-04-13T05:10:22.760Z,72.64
2018-04-13T05:12:50.703Z,70.53
2018-04-13T05:15:18.311Z,67.88
2018-04-13T05:17:45.899Z,66.05
2018-04-13T05:20:13.592Z,63.70
2018-04-13T05:22:41.274Z,62.52
2018-04-13T05:25:08.867Z,60.46
2018-04-13T05:27:36.624Z,60.06
2018-04-13T05:30:04.333Z,57.73
2018-04-13T05:32:31.935Z,56.57
2018-04-13T05:34:59.643Z,55.59
2018-04-13T05:37:27.241Z,56.46
2018-04-13T05:39:54.886Z,55.78
2018-04-13T05:42:22.520Z,54.79
2018-04-13T05:44:50.100Z,53.73
2018-04-13T05:47:17.693Z,53.53
2018-04-13T05:49:45.383Z,51.74
2018-04-13T05:52:13.029Z,49.00
2018-04-13T05:54:40.616Z,52.00
2018-04-13T05:57:08.537Z,52.58
2018-04-13T05:59:36.127Z,50.36
2018-04-13T06:02:03.748Z,52.57
2018-04-13T06:04:31.470Z,51.11
2018-04-13T06:07:00.140Z,49.68
2018-04-13T06:09:27.796Z,49.02
2018-04-13T06:11:55.464Z,48.17
2018-04-13T06:14:23.098Z,47.00
2018-04-13T06:16:50.751Z,47.48
2018-04-13T06:19:18.400Z,46.67
2018-04-13T06:21:46.048Z,47.23
2018-04-13T06:24:13.705Z,45.03
2018-04-13T06:26:41.533Z,45.69
2018-04-13T06:29:09.188Z,47.63
2018-04-13T06:31:36.805Z,47.04
2018-04-13T06:34:04.469Z,46.88
2018-04-13T06:36:32.095Z,46.27
2018-04-13T06:38:59.719Z,45.73
2018-04-13T06:41:27.367Z,48.95
2018-04-13T06:43:55.004Z,48.07
2018-04-13T06:46:22.613Z,49.96
2018-04-13T06:48:50.371Z,50.95
2018-04-13T06:51:17.975Z,51.04
2018-04-13T06:53:45.583Z,51.02
2018-04-13T06:56:13.260Z,53.27
2018-04-13T06:58:40.930Z,52.10
2018-04-13T07:01:08.586Z,52.37
2018-04-13T07:03:36.301Z,51.99
2018-04-13T07:06:03.900Z,54.54
2018-04-13T07:08:31.600Z,55.83
2018-04-13T07:11:00.744Z,57.88
2018-04-13T07:13:28.328Z,56.26
2018-04-13T07:15:55.917Z,55.99
2018-04-13T07:18:23.616Z,56.09
2018-04-13T07:20:51.280Z,55.40
2018-04-13T07:23:18.924Z,54.28
2018-04-13T07:25:46.626Z,55.58
2018-04-13T07:28:14.204Z,53.57
2018-04-13T07:30:41.813Z,53.52
2018-04-13T07:33:09.787Z,52.88
2018-04-13T07:35:37.320Z,54.29
2018-04-13T07:38:04.909Z,54.88
2018-04-13T07:40:32.770Z,53.13
2018-04-13T07:43:00.367Z,53.20
2018-04-13T07:45:27.959Z,53.46
2018-04-13T07:47:55.646Z,53.69
2018-04-13T07:50:23.243Z,51.67
2018-04-13T07:52:50.821Z,53.05
2018-04-13T07:55:18.522Z,52.38
2018-04-13T07:57:46.107Z,51.47
2018-04-13T08:00:13.758Z,54.23
2018-04-13T08:02:41.417Z,56.07
2018-04-13T08:05:09.068Z,54.18
2018-04-13T08:07:36.731Z,51.29
2018-04-13T08:10:04.614Z,50.89
2018-04-13T08:12:32.399Z,51.34
2018-04-13T08:15:00.588Z,49.64
2018-04-13T08:17:27.590Z,50.83
2018-04-13T08:19:56.085Z,49.14
2018-04-13T08:22:23.729Z,50.33
2018-04-13T08:24:51.429Z,48.49
2018-04-13T08:27:19.084Z,47.41
2018-04-13T08:29:46.689Z,48.41
2018-04-13T08:32:14.328Z,47.96
2018-04-13T08:34:41.984Z,47.65
2018-04-13T08:37:09.568Z,47.76
2018-04-13T08:39:37.287Z,47.60
2018-04-13T08:42:04.976Z,48.48
2018-04-13T08:44:33.424Z,48.53
2018-04-13T08:47:01.050Z,47.96
2018-04-13T08:49:29.210Z,48.57
2018-04-13T08:51:56.846Z,48.12
2018-04-13T08:54:24.499Z,49.26
2018-04-13T08:56:52.133Z,48.75
2018-04-13T08:59:19.785Z,48.21
2018-04-13T09:01:47.449Z,48.19
2018-04-13T09:04:15.100Z,48.15
2018-04-13T09:06:42.718Z,48.34
2018-04-13T09:09:10.345Z,47.85
2018-04-13T09:11:38.069Z,47.75
2018-04-13T09:14:05.687Z,47.96
2018-04-13T09:16:33.380Z,47.61
2018-04-13T09:19:01.373Z,45.33
2018-04-13T09:21:28.969Z,48.47
2018-04-13T09:23:56.663Z,47.70
2018-04-13T09:26:24.333Z,47.34
2018-04-13T09:28:51.992Z,46.79
2018-04-13T09:31:19.757Z,46.49
2018-04-13T09:33:47.389Z,46.48
2018-04-13T09:36:14.986Z,46.13
2018-04-13T09:38:42.624Z,44.72
2018-04-13T09:41:10.257Z,45.21
2018-04-13T09:43:37.852Z,43.78
2018-04-13T09:46:05.512Z,45.55
2018-04-13T09:48:33.132Z,44.57
2018-04-13T09:51:00.814Z,43.98
2018-04-13T09:53:28.818Z,45.74
2018-04-13T09:55:56.476Z,44.22
2018-04-13T09:58:24.145Z,44.76
2018-04-13T10:00:57.425Z,42.79
2018-04-13T10:03:25.069Z,43.76
2018-04-13T10:05:52.717Z,44.18
2018-04-13T10:08:20.356Z,42.99
2018-04-13T10:10:48.012Z,43.29
2018-04-13T10:13:16.082Z,42.93
2018-04-13T10:15:43.768Z,42.83
2018-04-13T10:18:11.407Z,41.12
2018-04-13T10:20:39.050Z,42.82
2018-04-13T10:23:06.872Z,43.41
2018-04-13T10:25:34.464Z,42.45
2018-04-13T10:28:02.051Z,41.54
2018-04-13T10:30:29.958Z,41.98
2018-04-13T10:32:57.548Z,41.27
2018-04-13T10:35:25.373Z,39.42
2018-04-13T10:37:53.035Z,40.88
2018-04-13T10:40:20.864Z,41.14
2018-04-13T10:42:48.448Z,41.76
2018-04-13T10:45:16.092Z,40.05
2018-04-13T10:47:43.679Z,40.25
2018-04-13T10:50:11.315Z,38.81
2018-04-13T10:52:39.013Z,39.24
2018-04-13T10:55:06.623Z,40.72
2018-04-13T10:57:34.215Z,39.04
2018-04-13T11:00:01.976Z,38.27
2018-04-13T11:02:29.584Z,38.73
2018-04-13T11:04:57.201Z,39.15
2018-04-13T11:07:25.105Z,35.57
2018-04-13T11:09:52.683Z,38.65
2018-04-13T11:12:20.337Z,39.54
2018-04-13T11:14:48.115Z,40.15
2018-04-13T11:17:15.705Z,39.92
2018-04-13T11:19:43.346Z,39.07
2018-04-13T11:22:10.988Z,38.80
2018-04-13T11:24:38.596Z,37.81
2018-04-13T11:27:06.196Z,37.01
2018-04-13T11:29:33.845Z,38.71
2018-04-13T11:32:01.435Z,39.61
2018-04-13T11:34:29.076Z,41.21
2018-04-13T11:36:57.049Z,39.09
2018-04-13T11:39:24.690Z,38.57
2018-04-13T11:41:52.277Z,39.08
2018-04-13T11:44:19.911Z,35.91
2018-04-13T11:46:47.508Z,36.78
2018-04-13T11:49:15.125Z,37.15
2018-04-13T11:51:42.922Z,36.55
2018-04-13T11:54:10.559Z,35.60
2018-04-13T11:56:38.152Z,34.94
2018-04-13T11:59:05.902Z,35.82
2018-04-13T12:01:33.623Z,33.57
2018-04-13T12:04:01.213Z,35.27
2018-04-13T12:06:28.878Z,32.30
2018-04-13T12:08:56.527Z,33.89
2018-04-13T12:11:24.557Z,34.08
2018-04-13T12:13:52.264Z,33.05
2018-04-13T12:16:19.968Z,34.70
2018-04-13T12:18:47.545Z,35.98
2018-04-13T12:21:15.228Z,34.98
2018-04-13T12:23:42.883Z,34.68
2018-04-13T12:26:10.481Z,33.89
2018-04-13T12:28:38.937Z,33.13
2018-04-13T12:31:06.537Z,31.07
2018-04-13T12:33:34.128Z,29.54
2018-04-13T12:36:01.914Z,29.89
2018-04-13T12:38:29.499Z,31.07
2018-04-13T12:40:57.101Z,33.67
2018-04-13T12:43:24.737Z,33.22
2018-04-13T12:45:52.448Z,32.54
2018-04-13T12:48:20.037Z,32.05
2018-04-13T12:50:47.677Z,32.32
2018-04-13T12:53:15.993Z,31.93
2018-04-13T12:55:45.525Z,35.84
2018-04-13T12:58:13.480Z,33.20
2018-04-13T13:00:41.125Z,35.95
2018-04-13T13:03:08.768Z,35.84
2018-04-13T13:05:36.557Z,35.01
2018-04-13T13:08:04.140Z,33.98
2018-04-13T13:10:31.741Z,33.36
2018-04-13T13:12:59.399Z,32.86
2018-04-13T13:15:26.988Z,35.44
2018-04-13T13:17:54.668Z,37.85
2018-04-13T13:20:22.359Z,35.11
2018-04-13T13:22:50.004Z,36.40
2018-04-13T13:25:17.605Z,37.57
2018-04-13T13:27:45.309Z,37.69
2018-04-13T13:30:12.984Z,38.83
2018-04-13T13:32:40.578Z,37.97
2018-04-13T13:35:08.212Z,37.49
2018-04-13T13:37:35.797Z,35.81
2018-04-13T13:40:04.068Z,36.91
2018-04-13T13:42:31.753Z,35.85
2018-04-13T13:44:59.367Z,37.47
2018-04-13T13:47:26.953Z,36.34
2018-04-13T13:49:54.638Z,36.27
2018-04-13T13:52:22.313Z,36.93
2018-04-13T13:54:49.932Z,35.88
2018-04-13T13:57:17.720Z,33.72
2018-04-13T13:59:45.340Z,33.38
2018-04-13T14:02:12.963Z,34.88
2018-04-13T14:04:40.889Z,35.84
2018-04-13T14:07:08.534Z,35.31
2018-04-13T14:09:36.129Z,35.97
2018-04-13T14:12:06.708Z,35.47
2018-04-13T14:14:34.305Z,35.17
2018-04-13T14:17:01.918Z,37.05
2018-04-13T14:19:29.813Z,36.67
2018-04-13T14:21:57.441Z,36.25
2018-04-13T14:24:25.032Z,36.21
2018-04-13T14:26:52.686Z,37.14
2018-04-13T14:29:20.346Z,36.02
2018-04-13T14:31:47.987Z,36.35
2018-04-13T14:34:15.697Z,35.41
2018-04-13T14:39:25.462Z,35.33
2018-04-13T14:41:53.152Z,36.36
2018-04-13T14:44:20.804Z,36.16
2018-04-13T14:46:48.506Z,37.46
2018-04-13T14:49:16.152Z,37.24
2018-04-13T14:51:43.794Z,36.59
2018-04-13T14:54:11.428Z,36.98
2018-04-13T14:56:39.020Z,36.32
2018-04-13T14:59:06.688Z,36.59
2018-04-13T15:01:34.320Z,37.45
2018-04-13T15:04:01.957Z,37.48
2018-04-13T15:06:29.544Z,37.99
2018-04-13T15:08:57.198Z,37.74
2018-04-13T15:11:27.591Z,37.21
2018-04-13T15:13:55.207Z,37.66
2018-04-13T15:16:23.117Z,37.10
2018-04-13T15:18:50.767Z,36.63
2018-04-13T15:21:18.514Z,36.29
2018-04-13T15:23:46.168Z,36.88
2018-04-13T15:26:13.758Z,37.75
2018-04-13T15:28:41.338Z,37.72
2018-04-13T15:31:09.075Z,37.98
2018-04-13T15:33:36.676Z,38.09
2018-04-13T15:36:04.298Z,38.70
2018-04-13T15:38:32.098Z,39.30
2018-04-13T15:40:59.827Z,39.44
2018-04-13T15:43:27.391Z,39.71
2018-04-13T15:45:55.080Z,40.21
2018-04-13T15:48:22.723Z,40.28
2018-04-13T15:50:50.296Z,40.53
2018-04-13T15:53:17.944Z,40.79
2018-04-13T15:55:45.625Z,41.04
2018-04-13T15:58:13.217Z,40.76
2018-04-13T16:00:40.864Z,41.30
2018-04-13T16:03:08.536Z,41.38
2018-04-13T16:05:36.173Z,40.61
2018-04-13T16:08:03.982Z,41.11
2018-04-13T16:10:31.958Z,41.26
2018-04-13T16:12:59.532Z,41.91
2018-04-13T16:15:27.172Z,42.19
2018-04-13T16:17:54.824Z,42.74
2018-04-13T16:20:22.486Z,42.67
2018-04-13T16:22:50.265Z,42.65
2018-04-13T16:25:17.851Z,44.40
2018-04-13T16:27:45.504Z,47.19
2018-04-13T16:30:13.289Z,49.29
2018-04-13T16:32:41.707Z,50.18
2018-04-13T16:35:09.400Z,50.53
2018-04-13T16:37:37.102Z,50.98
2018-04-13T16:40:04.752Z,51.40
2018-04-13T16:42:32.391Z,51.92
2018-04-13T16:45:00.185Z,52.44
2018-04-13T16:47:27.771Z,52.80
2018-04-13T16:49:55.439Z,53.10
2018-04-13T16:52:23.220Z,52.93
2018-04-13T16:54:50.825Z,52.64
2018-04-13T16:57:18.403Z,53.14
2018-04-13T16:59:46.052Z,52.88
2018-04-13T17:02:13.701Z,52.65
2018-04-13T17:04:41.295Z,52.54
2018-04-13T17:07:08.973Z,52.30
2018-04-13T17:09:36.640Z,52.56
2018-04-13T17:12:04.249Z,52.52
2018-04-13T17:14:31.880Z,52.54
2018-04-13T17:16:59.533Z,52.57
2018-04-13T17:19:27.151Z,52.59
2018-04-13T17:21:54.872Z,52.32
2018-04-13T17:24:22.747Z,52.61
2018-04-13T17:26:50.412Z,52.40
2018-04-13T17:29:18.214Z,52.77
2018-04-13T17:31:45.848Z,52.65
2018-04-13T17:34:13.431Z,52.82
2018-04-13T17:36:41.072Z,52.87
2018-04-13T17:39:08.651Z,52.70
2018-04-13T17:41:36.301Z,53.17
2018-04-13T17:44:03.943Z,53.34
2018-04-13T17:46:31.532Z,52.27
2018-04-13T17:48:59.140Z,52.45
2018-04-13T17:51:26.768Z,52.86
2018-04-13T17:53:54.360Z,51.78
2018-04-13T17:56:21.951Z,52.63
2018-04-13T17:58:49.612Z,52.16
2018-04-13T18:01:17.208Z,52.14
2018-04-13T18:03:44.866Z,53.13
2018-04-13T18:06:12.651Z,51.93
2018-04-13T18:08:40.226Z,53.78
2018-04-13T18:11:07.821Z,51.22
2018-04-13T18:13:36.375Z,52.60
2018-04-13T18:16:04.009Z,51.42
2018-04-13T18:18:31.593Z,51.64
2018-04-13T18:20:59.248Z,51.25
2018-04-13T18:23:26.981Z,52.07
2018-04-13T18:25:54.635Z,49.98
2018-04-13T18:28:22.274Z,50.29
2018-04-13T18:30:49.915Z,50.10
2018-04-13T18:33:17.520Z,51.02
2018-04-13T18:35:45.212Z,51.45
2018-04-13T18:38:12.807Z,51.56
2018-04-13T18:40:40.389Z,51.83
2018-04-13T18:43:08.093Z,50.59
2018-04-13T18:45:35.723Z,51.49
2018-04-13T18:48:03.315Z,50.84
2018-04-13T18:50:30.976Z,52.14
2018-04-13T18:52:58.892Z,51.14
2018-04-13T18:55:26.476Z,52.05
2018-04-13T18:57:54.287Z,52.36
2018-04-13T19:00:21.892Z,53.10
2018-04-13T19:02:49.540Z,52.82
2018-04-13T19:05:17.158Z,53.21
2018-04-13T19:07:44.727Z,53.55
2018-04-13T19:10:12.373Z,53.39
2018-04-13T19:12:40.096Z,53.31
2018-04-13T19:15:07.763Z,52.89
2018-04-13T19:17:35.396Z,52.91
2018-04-13T19:20:03.043Z,52.67
2018-04-13T19:22:30.620Z,53.33
2018-04-13T19:24:58.281Z,53.91
2018-04-13T19:27:25.948Z,53.57
2018-04-13T19:29:53.583Z,53.77
2018-04-13T19:32:21.236Z,54.58
2018-04-13T19:34:49.022Z,54.58
2018-04-13T19:37:16.666Z,54.59
2018-04-13T19:39:44.261Z,54.74
2018-04-13T19:42:11.951Z,55.58
2018-04-13T19:44:39.581Z,56.67
2018-04-13T19:47:07.199Z,56.38
2018-04-13T19:49:34.943Z,56.27
2018-04-13T19:52:02.534Z,57.13
2018-04-13T19:54:30.220Z,57.82
2018-04-13T19:56:58.041Z,57.45
2018-04-13T19:59:25.735Z,57.64
2018-04-13T20:01:53.311Z,57.87
2018-04-13T20:04:21.052Z,58.31
2018-04-13T20:06:48.649Z,58.01
2018-04-13T20:09:16.346Z,58.12
2018-04-13T20:11:44.067Z,57.95
2018-04-13T20:14:11.736Z,58.15
2018-04-13T20:16:39.323Z,57.85
2018-04-13T20:19:07.026Z,58.20
2018-04-13T20:21:35.383Z,58.15
2018-04-13T20:24:02.986Z,58.36
2018-04-13T20:26:30.727Z,58.13
2018-04-13T20:28:58.525Z,58.63
2018-04-13T20:31:26.112Z,58.96
2018-04-13T20:33:53.839Z,58.84
2018-04-13T20:36:21.428Z,59.11
2018-04-13T20:38:49.008Z,59.81
2018-04-13T20:41:16.646Z,59.00
2018-04-13T20:43:45.025Z,59.22
2018-04-13T20:46:12.677Z,59.72
2018-04-13T20:48:40.312Z,59.22
2018-04-13T20:51:07.925Z,59.39
2018-04-13T20:53:35.514Z,59.94
2018-04-13T20:56:03.161Z,59.81
2018-04-13T20:58:31.443Z,60.34
2018-04-13T21:00:59.100Z,60.58
2018-04-13T21:03:26.742Z,59.20
2018-04-13T21:05:54.404Z,59.79
2018-04-13T21:08:22.008Z,60.72
2018-04-13T21:10:49.817Z,59.76
2018-04-13T21:13:17.400Z,61.08
2018-04-13T21:15:45.009Z,60.73
2018-04-13T21:18:12.876Z,61.14
2018-04-13T21:20:40.460Z,61.42
2018-04-13T21:23:08.078Z,61.76
2018-04-13T21:25:35.881Z,61.83
2018-04-13T21:28:03.469Z,61.85
2018-04-13T21:30:31.220Z,62.64
2018-04-13T21:32:58.852Z,62.53
2018-04-13T21:35:26.503Z,62.58
2018-04-13T21:37:54.077Z,62.95
2018-04-13T21:40:21.880Z,62.67
2018-04-13T21:42:49.472Z,62.53
2018-04-13T21:45:17.137Z,62.75
2018-04-13T21:47:45.455Z,63.27
2018-04-13T21:50:13.053Z,63.78
2018-04-13T21:52:40.647Z,63.30
2018-04-13T21:55:08.276Z,63.64
2018-04-13T21:57:35.933Z,63.34
2018-04-13T22:00:03.647Z,63.41
2018-04-13T22:02:31.940Z,63.62
2018-04-13T22:04:59.745Z,63.53
2018-04-13T22:07:27.418Z,63.83
2018-04-13T22:09:55.157Z,64.06
2018-04-13T22:12:34.573Z,63.87
2018-04-13T22:15:02.294Z,64.02
2018-04-13T22:17:29.919Z,64.17
2018-04-13T22:19:57.500Z,64.42
2018-04-13T22:22:25.140Z,64.30
2018-04-13T22:24:52.800Z,64.24
2018-04-13T22:27:20.378Z,64.15
2018-04-13T22:29:48.069Z,64.27
2018-04-13T22:32:15.872Z,64.67
2018-04-13T22:34:43.473Z,64.86
2018-04-13T22:37:11.261Z,64.55
2018-04-13T22:39:38.839Z,64.57
2018-04-13T22:42:06.488Z,64.82
2018-04-13T22:44:34.128Z,64.41
2018-04-13T22:47:01.708Z,64.63
2018-04-13T22:49:29.292Z,64.56
2018-04-13T22:51:56.951Z,64.37
2018-04-13T22:54:24.544Z,64.51
2018-04-13T22:56:52.228Z,63.87
2018-04-13T22:59:20.307Z,64.75
2018-04-13T23:01:47.954Z,65.71
2018-04-13T23:04:15.604Z,64.90
2018-04-13T23:06:43.397Z,65.11
2018-04-13T23:09:11.076Z,65.16
2018-04-13T23:11:38.734Z,64.92
2018-04-13T23:14:06.529Z,64.87
2018-04-13T23:16:34.173Z,64.82
2018-04-13T23:19:01.784Z,65.38
2018-04-13T23:21:29.427Z,64.91
2018-04-13T23:23:57.203Z,65.24
2018-04-13T23:26:24.799Z,64.95
2018-04-13T23:28:52.516Z,64.95
2018-04-13T23:31:20.096Z,65.07
2018-04-13T23:33:48.005Z,65.49
2018-04-13T23:36:15.725Z,65.54
2018-04-13T23:38:43.364Z,65.36
2018-04-13T23:41:10.956Z,65.82
2018-04-13T23:43:38.606Z,65.50
2018-04-13T23:46:06.806Z,66.21
2018-04-13T23:48:34.385Z,66.24
2018-04-13T23:51:02.102Z,66.40
2018-04-13T23:53:29.698Z,66.35
2018-04-13T23:55:57.311Z,66.14
2018-04-13T23:58:25.100Z,66.23
